createdAt,value
2018-09-22T00:01:15.556Z,1.53
2018-09-22T00:03:44.458Z,1.57
2018-09-22T00:06:13.116Z,1.40
2018-09-22T00:08:41.775Z,1.53
2018-09-22T00:11:10.471Z,1.43
2018-09-22T00:13:39.204Z,1.37
2018-09-22T00:16:07.866Z,1.87
2018-09-22T00:18:36.654Z,1.57
2018-09-22T00:21:05.618Z,1.27
2018-09-22T00:23:34.304Z,1.53
2018-09-22T00:26:03.156Z,1.63
2018-09-22T00:28:31.834Z,1.50
2018-09-22T00:31:00.486Z,1.40
2018-09-22T00:33:29.158Z,1.60
2018-09-22T00:35:58.026Z,1.40
2018-09-22T00:38:26.690Z,1.53
2018-09-22T00:40:55.330Z,1.20
2018-09-22T00:43:24.011Z,1.20
2018-09-22T00:45:52.848Z,1.10
2018-09-22T00:48:21.556Z,1.10
2018-09-22T00:50:50.358Z,1.07
2018-09-22T00:53:18.999Z,1.03
2018-09-22T00:55:47.828Z,1.47
2018-09-22T00:58:16.510Z,1.03
2018-09-22T01:00:45.178Z,0.93
2018-09-22T01:03:13.892Z,1.23
2018-09-22T01:05:42.504Z,0.77
2018-09-22T01:08:11.117Z,1.30
2018-09-22T01:10:39.718Z,0.90
2018-09-22T01:13:08.382Z,0.80
2018-09-22T01:15:37.028Z,1.30
2018-09-22T01:18:05.730Z,1.33
2018-09-22T01:20:34.368Z,1.23
2018-09-22T01:23:03.360Z,1.43
2018-09-22T01:25:32.022Z,1.00
2018-09-22T01:28:00.680Z,0.87
2018-09-22T01:30:29.434Z,0.80
2018-09-22T01:32:58.042Z,1.00
2018-09-22T01:35:26.666Z,1.23
2018-09-22T01:37:55.512Z,1.00
2018-09-22T01:40:24.213Z,1.17
2018-09-22T01:42:52.994Z,1.30
2018-09-22T01:45:22.038Z,1.10
2018-09-22T01:47:51.066Z,0.93
2018-09-22T01:50:19.746Z,1.30
2018-09-22T01:52:48.556Z,1.17
2018-09-22T01:55:17.198Z,1.83
2018-09-22T01:57:45.856Z,1.40
2018-09-22T02:00:14.518Z,1.40
2018-09-22T02:02:43.148Z,1.20
2018-09-22T02:05:11.798Z,1.30
2018-09-22T02:07:40.496Z,1.40
2018-09-22T02:10:09.376Z,1.20
2018-09-22T02:12:38.106Z,1.27
2018-09-22T02:15:07.096Z,1.37
2018-09-22T02:17:35.761Z,1.10
2018-09-22T02:20:04.872Z,1.07
2018-09-22T02:22:33.518Z,0.97
2018-09-22T02:25:02.313Z,1.00
2018-09-22T02:27:31.036Z,1.13
2018-09-22T02:29:59.698Z,1.13
2018-09-22T02:32:28.321Z,1.00
2018-09-22T02:34:56.939Z,0.87
2018-09-22T02:37:25.635Z,0.93
2018-09-22T02:39:54.276Z,0.80
2018-09-22T02:42:23.074Z,1.50
2018-09-22T02:44:51.790Z,0.90
2018-09-22T02:47:20.408Z,1.00
2018-09-22T02:49:49.021Z,1.03
2018-09-22T02:52:17.863Z,1.00
2018-09-22T02:54:46.672Z,1.10
2018-09-22T02:57:15.414Z,1.50
2018-09-22T02:59:44.046Z,1.87
2018-09-22T03:02:13.250Z,0.83
2018-09-22T03:04:41.944Z,1.33
2018-09-22T03:07:10.556Z,1.30
2018-09-22T03:09:39.360Z,1.00
2018-09-22T03:12:08.022Z,1.17
2018-09-22T03:14:36.830Z,1.50
2018-09-22T03:17:05.534Z,1.70
2018-09-22T03:19:34.263Z,1.47
2018-09-22T03:22:03.036Z,1.20
2018-09-22T03:24:31.822Z,1.10
2018-09-22T03:27:00.475Z,1.13
2018-09-22T03:29:29.336Z,1.30
2018-09-22T03:31:57.966Z,1.20
2018-09-22T03:34:26.754Z,1.00
2018-09-22T03:36:55.788Z,1.30
2018-09-22T03:39:24.481Z,1.00
2018-09-22T03:41:53.115Z,1.53
2018-09-22T03:44:21.951Z,1.60
2018-09-22T03:46:50.647Z,1.63
2018-09-22T03:49:19.306Z,2.23
2018-09-22T03:51:47.999Z,1.40
2018-09-22T03:54:16.629Z,1.40
2018-09-22T03:56:45.317Z,1.47
2018-09-22T03:59:14.214Z,1.43
2018-09-22T04:01:42.959Z,1.90
2018-09-22T04:04:11.642Z,1.73
2018-09-22T04:06:40.303Z,1.50
2018-09-22T04:09:09.346Z,1.80
2018-09-22T04:11:38.006Z,1.40
2018-09-22T04:14:06.845Z,2.00
2018-09-22T04:16:35.623Z,1.50
2018-09-22T04:19:04.312Z,1.50
2018-09-22T04:21:32.980Z,1.97
2018-09-22T04:24:07.268Z,1.80
2018-09-22T04:26:36.051Z,1.73
2018-09-22T04:29:04.696Z,1.60
2018-09-22T04:31:33.337Z,1.70
2018-09-22T04:34:02.031Z,1.70
2018-09-22T04:36:30.690Z,1.83
2018-09-22T04:38:59.375Z,2.00
2018-09-22T04:41:28.032Z,2.20
2018-09-22T04:43:56.714Z,1.87
2018-09-22T04:46:25.426Z,1.73
2018-09-22T04:48:54.042Z,1.60
2018-09-22T04:51:22.667Z,1.50
2018-09-22T04:53:51.330Z,1.60
2018-09-22T04:56:20.025Z,2.00
2018-09-22T04:58:48.858Z,1.93
2018-09-22T05:01:17.502Z,1.80
2018-09-22T05:03:46.149Z,2.70
2018-09-22T05:06:14.819Z,1.60
2018-09-22T05:08:43.608Z,1.77
2018-09-22T05:11:12.317Z,1.77
2018-09-22T05:13:40.961Z,2.03
2018-09-22T05:16:09.789Z,2.00
2018-09-22T05:18:38.579Z,1.83
2018-09-22T05:21:07.492Z,1.70
2018-09-22T05:23:36.595Z,1.90
2018-09-22T05:26:05.231Z,1.63
2018-09-22T05:28:33.961Z,1.60
2018-09-22T05:31:03.202Z,1.90
2018-09-22T05:33:32.173Z,1.90
2018-09-22T05:36:00.817Z,1.90
2018-09-22T05:38:29.891Z,1.87
2018-09-22T05:40:58.565Z,1.57
2018-09-22T05:43:27.697Z,2.07
2018-09-22T05:45:56.935Z,1.80
2018-09-22T05:48:25.613Z,1.57
2018-09-22T05:50:54.399Z,2.13
2018-09-22T05:53:23.147Z,2.20
2018-09-22T05:55:51.849Z,1.87
2018-09-22T05:58:20.560Z,2.00
2018-09-22T06:00:49.313Z,2.10
2018-09-22T06:03:18.183Z,2.20
2018-09-22T06:05:47.387Z,2.10
2018-09-22T06:08:16.294Z,3.23
2018-09-22T06:10:45.317Z,3.27
2018-09-22T06:13:13.954Z,2.83
2018-09-22T06:15:42.855Z,2.63
2018-09-22T06:18:11.575Z,2.90
2018-09-22T06:20:40.833Z,2.70
2018-09-22T06:23:09.596Z,2.90
2018-09-22T06:25:38.402Z,2.47
2018-09-22T06:28:07.025Z,3.23
2018-09-22T06:30:35.869Z,3.00
2018-09-22T06:33:04.644Z,2.63
2018-09-22T06:35:33.429Z,2.90
2018-09-22T06:38:02.115Z,2.90
2018-09-22T06:40:30.841Z,3.00
2018-09-22T06:42:59.631Z,2.50
2018-09-22T06:45:28.349Z,2.90
2018-09-22T06:47:58.176Z,3.07
2018-09-22T06:50:27.640Z,2.93
2018-09-22T06:52:56.393Z,2.47
2018-09-22T06:55:25.287Z,2.90
2018-09-22T06:57:53.911Z,3.23
2018-09-22T07:00:22.689Z,3.23
2018-09-22T07:02:51.777Z,3.07
2018-09-22T07:05:20.869Z,2.53
2018-09-22T07:07:50.073Z,2.87
2018-09-22T07:10:18.862Z,3.27
2018-09-22T07:12:47.537Z,2.77
2018-09-22T07:15:16.841Z,3.20
2018-09-22T07:17:45.740Z,3.57
2018-09-22T07:20:14.847Z,3.23
2018-09-22T07:22:48.691Z,2.80
2018-09-22T07:25:17.544Z,2.70
2018-09-22T07:27:46.461Z,2.17
2018-09-22T07:30:15.157Z,3.00
2018-09-22T07:32:43.851Z,3.00
2018-09-22T07:35:12.511Z,2.50
2018-09-22T07:37:41.339Z,2.27
2018-09-22T07:40:10.001Z,2.63
2018-09-22T07:42:39.233Z,2.70
2018-09-22T07:45:08.035Z,2.87
2018-09-22T07:47:36.799Z,2.80
2018-09-22T07:50:05.786Z,2.67
2018-09-22T07:52:35.064Z,2.37
2018-09-22T07:55:04.418Z,2.23
2018-09-22T07:57:33.186Z,2.60
2018-09-22T08:00:02.685Z,2.80
2018-09-22T08:02:31.700Z,2.40
2018-09-22T08:05:00.376Z,2.47
2018-09-22T08:07:29.024Z,2.47
2018-09-22T08:09:57.685Z,2.33
2018-09-22T08:12:26.472Z,2.10
2018-09-22T08:14:55.204Z,2.37
2018-09-22T08:17:24.100Z,2.60
2018-09-22T08:19:52.798Z,2.40
2018-09-22T08:22:21.805Z,2.73
2018-09-22T08:24:50.920Z,2.20
2018-09-22T08:27:19.891Z,2.33
2018-09-22T08:29:48.765Z,2.73
2018-09-22T08:32:17.628Z,2.10
2018-09-22T08:34:46.334Z,2.33
2018-09-22T08:37:15.084Z,2.20
2018-09-22T08:39:43.773Z,2.30
2018-09-22T08:42:12.610Z,2.40
2018-09-22T08:44:41.422Z,1.97
2018-09-22T08:47:10.128Z,2.00
2018-09-22T08:49:39.058Z,2.20
2018-09-22T08:52:07.701Z,2.53
2018-09-22T08:54:36.497Z,2.43
2018-09-22T08:57:05.241Z,1.70
2018-09-22T08:59:33.927Z,1.93
2018-09-22T09:02:02.624Z,1.90
2018-09-22T09:04:31.434Z,2.10
2018-09-22T09:07:00.142Z,1.97
2018-09-22T09:09:28.805Z,2.00
2018-09-22T09:11:57.633Z,1.77
2018-09-22T09:14:26.274Z,2.00
2018-09-22T09:16:55.320Z,2.03
2018-09-22T09:19:23.940Z,1.40
2018-09-22T09:21:52.621Z,2.03
2018-09-22T09:24:21.479Z,1.47
2018-09-22T09:26:50.202Z,2.10
2018-09-22T09:29:18.853Z,2.10
2018-09-22T09:31:47.749Z,1.70
2018-09-22T09:34:16.466Z,1.60
2018-09-22T09:36:45.163Z,1.90
2018-09-22T09:39:13.839Z,2.30
2018-09-22T09:41:42.675Z,1.80
2018-09-22T09:44:11.343Z,1.80
2018-09-22T09:46:40.080Z,1.90
2018-09-22T09:49:08.768Z,2.40
2018-09-22T09:51:37.397Z,1.90
2018-09-22T09:54:06.051Z,1.80
2018-09-22T09:56:34.725Z,1.60
2018-09-22T09:59:03.455Z,1.97
2018-09-22T10:01:32.140Z,1.50
2018-09-22T10:04:00.875Z,1.80
2018-09-22T10:06:29.599Z,1.27
2018-09-22T10:08:58.265Z,1.50
2018-09-22T10:11:26.958Z,1.30
2018-09-22T10:13:55.594Z,1.50
2018-09-22T10:16:24.299Z,1.47
2018-09-22T10:18:52.988Z,1.50
2018-09-22T10:21:22.059Z,1.93
2018-09-22T10:23:50.755Z,1.23
2018-09-22T10:26:19.459Z,2.13
2018-09-22T10:28:48.235Z,1.30
2018-09-22T10:31:16.976Z,1.40
2018-09-22T10:33:45.640Z,1.47
2018-09-22T10:36:14.306Z,1.33
2018-09-22T10:38:43.177Z,1.60
2018-09-22T10:41:11.966Z,2.00
2018-09-22T10:43:40.757Z,1.37
2018-09-22T10:46:09.419Z,1.37
2018-09-22T10:48:38.203Z,1.20
2018-09-22T10:51:07.077Z,1.70
2018-09-22T10:53:35.787Z,1.40
2018-09-22T10:56:04.667Z,1.20
2018-09-22T10:58:33.913Z,1.13
2018-09-22T11:01:02.574Z,1.20
2018-09-22T11:03:31.298Z,1.33
2018-09-22T11:05:59.939Z,1.60
2018-09-22T11:08:29.809Z,1.70
2018-09-22T11:10:58.745Z,1.23
2018-09-22T11:13:27.521Z,1.30
2018-09-22T11:15:56.158Z,1.40
2018-09-22T11:18:25.017Z,1.17
2018-09-22T11:20:53.687Z,1.50
2018-09-22T11:23:22.462Z,1.27
2018-09-22T11:25:51.101Z,0.90
2018-09-22T11:28:19.790Z,1.70
2018-09-22T11:30:48.495Z,1.30
2018-09-22T11:33:17.981Z,1.13
2018-09-22T11:35:46.699Z,1.43
2018-09-22T11:38:15.614Z,1.73
2018-09-22T11:40:44.534Z,1.50
2018-09-22T11:43:13.508Z,1.57
2018-09-22T11:45:42.450Z,1.73
2018-09-22T11:48:11.134Z,1.43
2018-09-22T11:50:39.848Z,1.70
2018-09-22T11:53:08.616Z,1.93
2018-09-22T11:55:37.266Z,1.80
2018-09-22T11:58:05.988Z,1.80
2018-09-22T12:00:34.800Z,1.63
2018-09-22T12:03:03.653Z,1.70
2018-09-22T12:05:32.405Z,1.97
2018-09-22T12:08:01.326Z,1.50
2018-09-22T12:10:30.115Z,1.50
2018-09-22T12:12:58.829Z,1.90
2018-09-22T12:15:27.603Z,1.43
2018-09-22T12:17:56.523Z,1.87
2018-09-22T12:20:25.320Z,1.70
2018-09-22T12:22:54.025Z,1.90
2018-09-22T12:25:22.668Z,1.50
2018-09-22T12:27:51.485Z,1.90
2018-09-22T12:30:20.151Z,2.40
2018-09-22T12:32:48.901Z,1.60
2018-09-22T12:35:17.901Z,1.60
2018-09-22T12:37:47.029Z,1.80
2018-09-22T12:40:15.693Z,1.30
2018-09-22T12:42:44.303Z,1.67
2018-09-22T12:45:13.008Z,1.33
2018-09-22T12:47:41.721Z,1.43
2018-09-22T12:50:10.469Z,1.63
2018-09-22T12:52:39.315Z,1.50
2018-09-22T12:55:08.141Z,1.53
2018-09-22T12:57:36.881Z,2.03
2018-09-22T13:00:06.132Z,1.70
2018-09-22T13:02:34.938Z,1.57
2018-09-22T13:05:03.670Z,1.70
2018-09-22T13:07:32.899Z,1.67
2018-09-22T13:10:01.930Z,1.30
2018-09-22T13:12:30.651Z,1.47
2018-09-22T13:14:59.274Z,1.40
2018-09-22T13:17:28.035Z,1.37
2018-09-22T13:19:56.820Z,1.30
2018-09-22T13:22:25.511Z,1.87
2018-09-22T13:24:54.380Z,2.07
2018-09-22T13:27:23.083Z,1.43
2018-09-22T13:29:51.917Z,1.47
2018-09-22T13:32:20.662Z,1.87
2018-09-22T13:34:49.280Z,1.67
2018-09-22T13:37:17.989Z,1.67
2018-09-22T13:39:46.673Z,2.20
2018-09-22T13:42:15.645Z,1.63
2018-09-22T13:44:44.361Z,1.70
2018-09-22T13:47:12.994Z,1.30
2018-09-22T13:49:41.817Z,1.70
2018-09-22T13:52:10.564Z,1.80
2018-09-22T13:54:39.243Z,1.53
2018-09-22T13:57:08.009Z,1.70
2018-09-22T13:59:36.782Z,1.90
2018-09-22T14:02:05.617Z,1.63
2018-09-22T14:04:34.307Z,2.57
2018-09-22T14:07:03.003Z,2.30
2018-09-22T14:09:31.647Z,2.17
2018-09-22T14:12:00.549Z,1.97
2018-09-22T14:14:29.212Z,1.60
2018-09-22T14:16:58.129Z,1.90
2018-09-22T14:19:27.249Z,1.33
2018-09-22T14:21:55.990Z,2.63
2018-09-22T14:24:24.681Z,1.97
2018-09-22T14:26:53.406Z,1.57
2018-09-22T14:29:22.350Z,1.70
2018-09-22T14:31:51.487Z,1.93
2018-09-22T14:34:20.305Z,1.53
2018-09-22T14:36:49.243Z,1.30
2018-09-22T14:39:18.067Z,1.47
2018-09-22T14:41:46.933Z,2.13
2018-09-22T14:44:15.592Z,1.33
2018-09-22T14:46:44.620Z,1.27
2018-09-22T14:49:13.335Z,1.90
2018-09-22T14:51:42.046Z,1.47
2018-09-22T14:54:10.697Z,1.30
2018-09-22T14:56:39.371Z,1.73
2018-09-22T14:59:08.043Z,2.03
2018-09-22T15:01:36.766Z,2.10
2018-09-22T15:04:05.819Z,1.90
2018-09-22T15:06:34.786Z,1.70
2018-09-22T15:09:04.741Z,1.47
2018-09-22T15:11:33.381Z,2.40
2018-09-22T15:14:02.292Z,1.70
2018-09-22T15:16:30.981Z,2.20
2018-09-22T15:18:59.648Z,1.93
2018-09-22T15:21:28.460Z,1.40
2018-09-22T15:23:57.447Z,1.40
2018-09-22T15:26:26.131Z,1.67
2018-09-22T15:28:55.040Z,1.80
2018-09-22T15:31:23.903Z,1.30
2018-09-22T15:33:52.636Z,1.33
2018-09-22T15:36:21.337Z,1.53
2018-09-22T15:38:50.043Z,1.87
2018-09-22T15:41:18.833Z,2.27
2018-09-22T15:43:47.520Z,2.10
2018-09-22T15:46:16.351Z,1.60
2018-09-22T15:48:45.045Z,2.07
2018-09-22T15:51:13.981Z,1.60
2018-09-22T15:53:42.689Z,2.27
2018-09-22T15:56:11.329Z,1.83
2018-09-22T15:58:39.999Z,1.80
2018-09-22T16:01:08.860Z,2.10
2018-09-22T16:03:37.496Z,2.00
2018-09-22T16:06:06.165Z,1.73
2018-09-22T16:08:34.877Z,1.80
2018-09-22T16:11:03.899Z,2.27
2018-09-22T16:13:32.675Z,1.80
2018-09-22T16:16:01.430Z,1.80
2018-09-22T16:18:30.262Z,2.20
2018-09-22T16:20:59.027Z,1.77
2018-09-22T16:23:27.663Z,2.50
2018-09-22T16:25:56.412Z,3.07
2018-09-22T16:28:25.531Z,2.70
2018-09-22T16:30:54.185Z,3.17
2018-09-22T16:33:22.995Z,2.37
2018-09-22T16:35:51.704Z,2.50
2018-09-22T16:38:20.369Z,2.40
2018-09-22T16:40:49.256Z,2.40
2018-09-22T16:43:17.932Z,2.37
2018-09-22T16:45:46.647Z,2.20
2018-09-22T16:48:15.514Z,2.20
2018-09-22T16:50:44.176Z,2.30
2018-09-22T16:53:12.814Z,2.20
2018-09-22T16:55:41.487Z,1.70
2018-09-22T16:58:10.464Z,2.10
2018-09-22T17:00:39.400Z,2.00
2018-09-22T17:03:08.512Z,1.87
2018-09-22T17:05:37.334Z,1.87
2018-09-22T17:08:06.322Z,1.97
2018-09-22T17:10:35.196Z,1.80
2018-09-22T17:13:03.804Z,2.10
2018-09-22T17:15:32.553Z,2.20
2018-09-22T17:18:01.192Z,2.27
2018-09-22T17:20:29.892Z,2.40
2018-09-22T17:22:58.508Z,2.57
2018-09-22T17:25:27.286Z,2.63
2018-09-22T17:27:56.250Z,2.37
2018-09-22T17:30:25.060Z,2.53
2018-09-22T17:32:53.886Z,2.37
2018-09-22T17:35:22.714Z,2.33
2018-09-22T17:37:51.419Z,2.30
2018-09-22T17:40:20.296Z,2.50
2018-09-22T17:42:49.216Z,2.73
2018-09-22T17:45:18.133Z,2.47
2018-09-22T17:47:46.790Z,2.80
2018-09-22T17:50:15.596Z,2.80
2018-09-22T17:52:44.494Z,2.90
2018-09-22T17:55:13.140Z,2.40
2018-09-22T17:57:41.837Z,2.70
2018-09-22T18:00:10.675Z,2.70
2018-09-22T18:02:39.412Z,3.23
2018-09-22T18:05:08.196Z,3.07
2018-09-22T18:07:36.828Z,2.60
2018-09-22T18:10:05.618Z,2.50
2018-09-22T18:12:34.271Z,2.90
2018-09-22T18:15:02.921Z,2.70
2018-09-22T18:17:31.651Z,3.17
2018-09-22T18:20:00.396Z,3.33
2018-09-22T18:22:29.249Z,2.70
2018-09-22T18:24:58.055Z,2.83
2018-09-22T18:27:26.765Z,3.13
2018-09-22T18:29:55.438Z,3.30
2018-09-22T18:32:24.321Z,3.30
2018-09-22T18:34:53.016Z,3.07
2018-09-22T18:37:21.927Z,3.37
2018-09-22T18:39:51.366Z,3.80
2018-09-22T18:42:20.025Z,3.07
2018-09-22T18:44:49.358Z,3.17
2018-09-22T18:47:17.974Z,3.50
2018-09-22T18:49:46.868Z,4.07
2018-09-22T18:52:15.645Z,3.70
2018-09-22T18:54:44.490Z,3.63
2018-09-22T18:57:13.478Z,3.87
2018-09-22T18:59:42.478Z,3.50
2018-09-22T19:02:11.540Z,3.70
2018-09-22T19:04:40.243Z,4.13
2018-09-22T19:07:09.026Z,3.73
2018-09-22T19:09:37.934Z,3.90
2018-09-22T19:12:06.928Z,3.80
2018-09-22T19:14:43.928Z,3.27
2018-09-22T19:17:18.033Z,4.20
2018-09-22T19:19:49.648Z,4.00
2018-09-22T19:22:26.399Z,4.23
2018-09-22T19:25:00.166Z,4.33
2018-09-22T19:27:48.182Z,4.00
2018-09-22T19:30:28.034Z,4.30
2018-09-22T19:33:03.054Z,4.37
2018-09-22T19:35:35.354Z,4.20
2018-09-22T19:38:08.853Z,4.20
2018-09-22T19:41:11.645Z,4.57
2018-09-22T19:43:47.016Z,4.73
2018-09-22T19:46:20.197Z,4.40
2018-09-22T19:48:56.212Z,4.77
2018-09-22T19:51:27.147Z,4.67
2018-09-22T19:53:57.085Z,4.20
2018-09-22T19:56:25.812Z,4.33
2018-09-22T19:58:54.634Z,4.80
2018-09-22T20:01:23.569Z,5.00
2018-09-22T20:03:52.322Z,4.50
2018-09-22T20:06:21.368Z,4.80
2018-09-22T20:08:50.007Z,4.90
2018-09-22T20:11:19.034Z,4.53
2018-09-22T20:13:47.792Z,4.87
2018-09-22T20:16:16.506Z,4.37
2018-09-22T20:18:45.271Z,4.33
2018-09-22T20:21:13.888Z,4.40
2018-09-22T20:23:42.608Z,4.33
2018-09-22T20:26:11.282Z,4.07
2018-09-22T20:28:39.950Z,4.10
2018-09-22T20:31:08.659Z,4.20
2018-09-22T20:33:37.382Z,3.87
2018-09-22T20:36:06.367Z,3.00
2018-09-22T20:38:34.996Z,3.40
2018-09-22T20:41:03.753Z,3.37
2018-09-22T20:43:32.638Z,3.73
2018-09-22T20:46:01.422Z,2.83
2018-09-22T20:48:30.098Z,4.03
2018-09-22T20:50:58.764Z,3.30
2018-09-22T20:53:27.452Z,3.67
2018-09-22T20:55:56.201Z,2.90
2018-09-22T20:58:25.124Z,3.17
2018-09-22T21:00:53.928Z,3.23
2018-09-22T21:03:22.561Z,3.70
2018-09-22T21:05:51.512Z,3.40
2018-09-22T21:08:20.199Z,3.50
2018-09-22T21:10:49.218Z,3.60
2018-09-22T21:13:17.863Z,3.50
2018-09-22T21:15:46.946Z,4.60
2018-09-22T21:18:15.646Z,4.20
2018-09-22T21:20:44.359Z,4.50
2018-09-22T21:23:13.008Z,4.20
2018-09-22T21:25:41.730Z,4.27
2018-09-22T21:28:10.379Z,4.73
2018-09-22T21:30:39.502Z,5.03
2018-09-22T21:33:08.634Z,4.93
2018-09-22T21:35:37.312Z,5.20
2018-09-22T21:38:06.493Z,5.60
2018-09-22T21:40:35.193Z,5.80
2018-09-22T21:43:03.951Z,5.80
2018-09-22T21:45:32.721Z,6.03
2018-09-22T21:48:01.466Z,7.33
2018-09-22T21:50:30.154Z,7.07
2018-09-22T21:52:58.964Z,7.00
2018-09-22T21:55:27.643Z,7.80
2018-09-22T21:57:56.313Z,8.40
2018-09-22T22:00:25.044Z,9.00
2018-09-22T22:02:53.837Z,8.97
2018-09-22T22:05:22.578Z,8.83
2018-09-22T22:07:51.443Z,9.00
2018-09-22T22:10:20.272Z,10.10
2018-09-22T22:12:48.975Z,8.70
2018-09-22T22:15:17.700Z,9.43
2018-09-22T22:17:46.502Z,10.43
2018-09-22T22:20:15.194Z,11.37
2018-09-22T22:22:43.868Z,10.57
2018-09-22T22:25:12.702Z,10.50
2018-09-22T22:27:41.534Z,10.40
2018-09-22T22:30:11.120Z,10.60
2018-09-22T22:32:39.812Z,11.67
2018-09-22T22:35:08.604Z,10.90
2018-09-22T22:37:37.565Z,11.13
2018-09-22T22:40:06.863Z,11.37
2018-09-22T22:42:35.758Z,11.13
2018-09-22T22:45:04.570Z,11.97
2018-09-22T22:47:33.224Z,11.70
2018-09-22T22:50:02.097Z,11.73
2018-09-22T22:52:30.811Z,12.13
2018-09-22T22:54:59.530Z,11.53
2018-09-22T22:57:28.159Z,12.43
2018-09-22T22:59:56.982Z,11.13
2018-09-22T23:02:25.656Z,11.90
2018-09-22T23:04:54.807Z,12.53
2018-09-22T23:07:23.705Z,11.97
2018-09-22T23:09:52.573Z,12.03
2018-09-22T23:12:21.447Z,11.63
2018-09-22T23:14:50.233Z,11.73
2018-09-22T23:17:18.931Z,11.97
2018-09-22T23:19:47.621Z,11.33
2018-09-22T23:22:16.372Z,12.10
2018-09-22T23:24:45.056Z,12.13
2018-09-22T23:27:13.805Z,11.70
2018-09-22T23:29:42.495Z,12.17
2018-09-22T23:32:11.134Z,13.30
2018-09-22T23:34:39.892Z,12.07
2018-09-22T23:37:08.535Z,11.30
2018-09-22T23:39:37.442Z,12.27
2018-09-22T23:42:06.266Z,11.10
2018-09-22T23:44:35.284Z,11.50
2018-09-22T23:47:04.174Z,12.23
2018-09-22T23:49:32.835Z,12.20
2018-09-22T23:52:01.703Z,11.80
2018-09-22T23:54:30.342Z,12.00
2018-09-22T23:56:59.099Z,11.53
2018-09-22T23:59:27.737Z,12.43
